Alta Loma, California
Current Conditions -  °F | °C
As of 10:53 AM on Tuesday 27 Jan 2015 (Local Time) from KONT Reporting Station
Few Clouds Few Clouds  
Wind Chill: 66°   Ceiling: Unl
Heat Index: 66°   Visibility: 10mi
Dew Point: 50°   Wind: 5mph
Humidity: 56%   Direction: 150°SSE
Pressure: 30.2"   Gusts: NA
Location:  34.12°N, 117.6°W
Report Text: KONT 271853Z 15004KT 10SM FEW060 FEW250 19/10 A3020 RMK AO2 SLP220 FU SW T01890100
Loading
Personal Weather Stations






























Interactive Weather Map New forecast layout! Learn more

10-Day Weather Forecast

Advertisements
Track Severe Weather on mobile